WSSLWMBT

Guest
Details From WSSL - Seletar
To WMBT - Pulau Tioman
Flight Number -
Tags generated
Created
Modified
Stats Distance 86 nm / 159 km
Max Altitude 3,900 ft / 1,189 m
Waypoints 3
Social Downloads 3
Likes 0
Share

Download

Looking for another format? Having issues loading an existing format? Contact us
Advertisement - Login to hide

Notes

Basic altitude profile: - Ascent Rate: 2500ft/min - Ascent Speed: 250kts - Cruise Altitude: 35000ft - Cruise Speed: 420kts - Descent Rate: 1500ft/min - Descent Speed: 250kts Options: - Use NATs: yes - Use PACOTS: yes - Use low airways: yes - Use high airways: yes

Route

WSSL PU010 WMBT

ID Type Via Altitude (ft/m) Position (lat/lon) Dist (leg/tot) Name
O WSSL APT - 0 / 0 1.41643 / 103.86730 - / 0 nm Seletar
PU010 FIX - 3,900 / 1,189 1.58972 / 103.92278 10 / 10 nm
O WMBT APT - 0 / 0 2.81818 / 104.16002 75 / 86 nm Pulau Tioman

Altitude Profile

Advertisement - Login to hide

WSSL

Details ICAO WSSL (XSP)
Name Seletar
Region Singapore
Timezone Asia/Singapore (UTC+8.0)
Stats Elevation 36 ft / 11 m (AMSL)
Location 1.415500° 103.867000°
Runways 1
Magnetic Variation 0.204° E

METAR

WSSL 080700Z 35003KT 300V040 9999 VCTS SCT015 FEW017CB BKN200 30/25 Q1008

Decode

TAF

TAF WSSL 080500Z 0806/0912 VRB05KT 9999 FEW015CB SCT020 TEMPO 0806/0809 3000 TSRA FEW012CB BKN015

Decode

Departure Runways

ID Width Length Bearing (true/mag) Surface Threshold Overrun Markings Lighting
03 151 ft / 46 m 6,029 ft / 1,838 m 33.15° / 32.94° ASPHALT 0 ft / 0 m 207 ft / 63 m APP CENTERLINE EDGE THRESHOLD
21 151 ft / 46 m 6,029 ft / 1,838 m 213.15° / 212.94° ASPHALT 0 ft / 0 m 203 ft / 62 m APP CENTERLINE EDGE THRESHOLD

WMBT

Details ICAO WMBT (TOD)
Name Pulau Tioman
Region Malaysia (Peninsular Malaysia)
Timezone Asia/Kuala_Lumpur (UTC+8.0)
Stats Elevation 15 ft / 5 m (AMSL)
Location 2.818220° 104.160000°
Runways 1
Magnetic Variation 0.138° E

METAR

Not found

TAF

TAF WMBT 080500Z 0806/0906 02005KT 9999 SCT020 TEMPO 0806/0810 6000 -TSRA FEW017CB

Decode

Destination Runways

ID Width Length Bearing (true/mag) Surface Threshold Overrun Markings Lighting
02 100 ft / 30 m 3,270 ft / 997 m 26.24° / 26.10° ASPHALT 0 ft / 0 m 0 ft / 0 m APP
20 100 ft / 30 m 3,270 ft / 997 m 206.24° / 206.10° ASPHALT 0 ft / 0 m 0 ft / 0 m APP

Popular Alternatives